Time;durP1;ratioP1;P1;durP2;ratioP2;P2;SDS_P1;SDS_P2;PMS_P1;PMS_P2;Temp;Humidity;BMP_temperature;BMP_pressure;BME280_temperature;BME280_humidity;BME280_pressure;Samples;Min_cycle;Max_cycle;Signal;HPM_P1;HPM_P2
2022/02/04 00:02:50;;;;;;;1999.90;999.90;;;;;;;4.98;100.00;100259.03;5019984;28;20078;-84
2022/02/04 00:05:06;;;;;;;1999.90;999.90;;;;;;;4.99;100.00;100252.56;5023054;28;20055;-84
2022/02/04 00:21:43;;;;;;;1999.90;999.90;;;;;;;4.90;100.00;100243.31;5028034;28;20497;-85
2022/02/04 00:24:19;;;;;;;1999.90;999.90;;;;;;;4.89;100.00;100247.88;5025003;28;20068;-86
2022/02/04 00:26:53;;;;;;;1999.90;999.90;;;;;;;4.89;100.00;100253.28;5025698;28;20061;-85
2022/02/04 00:29:31;;;;;;;1999.90;999.90;;;;;;;4.90;100.00;100254.91;5027330;28;20053;-85
2022/02/04 00:32:08;;;;;;;1999.90;999.90;;;;;;;4.89;100.00;100257.88;5024396;28;20057;-85
2022/02/04 00:34:42;;;;;;;1999.90;999.90;;;;;;;4.92;100.00;100250.06;5028061;28;20052;-85
2022/02/04 00:37:25;;;;;;;1999.90;999.90;;;;;;;4.85;100.00;100249.47;5026393;28;20057;-85
2022/02/04 00:39:59;;;;;;;1999.90;999.90;;;;;;;4.89;100.00;100249.78;5034041;28;20050;-85
2022/02/04 00:42:32;;;;;;;1999.90;999.90;;;;;;;4.87;100.00;100247.31;5030843;28;20049;-84
2022/02/04 00:45:17;;;;;;;1999.90;999.90;;;;;;;4.79;100.00;100241.56;5052873;28;20054;-84
2022/02/04 00:47:52;;;;;;;1999.90;999.90;;;;;;;4.91;100.00;100253.03;5027805;28;20057;-85
2022/02/04 00:50:30;;;;;;;1999.90;999.90;;;;;;;4.89;100.00;100244.38;5057680;28;20569;-85
2022/02/04 00:53:11;;;;;;;1999.90;999.90;;;;;;;4.87;100.00;100246.50;5031594;28;20154;-85
2022/02/04 00:56:00;;;;;;;1999.90;999.90;;;;;;;4.87;100.00;100249.22;5025198;28;20053;-85
2022/02/04 01:13:16;;;;;;;1999.90;999.90;;;;;;;4.76;100.00;100230.22;5025631;28;20065;-85
2022/02/04 01:27:14;;;;;;;1999.90;999.90;;;;;;;4.65;100.00;100208.78;5032747;28;20080;-85
2022/02/04 01:29:57;;;;;;;1999.90;999.90;;;;;;;4.77;100.00;100242.63;5026237;28;20065;-84
2022/02/04 01:32:31;;;;;;;1999.90;999.90;;;;;;;4.71;100.00;100232.03;5041889;28;20049;-85
2022/02/04 01:35:06;;;;;;;1999.90;999.90;;;;;;;4.64;100.00;100212.53;5020299;28;20556;-85
2022/02/04 01:37:39;;;;;;;1999.90;999.90;;;;;;;4.83;100.00;100246.19;5028104;28;20418;-85
2022/02/04 01:40:13;;;;;;;1999.90;999.90;;;;;;;4.84;100.00;100242.44;5031129;28;20060;-85
2022/02/04 01:42:46;;;;;;;1999.90;999.90;;;;;;;4.79;100.00;100239.66;5014204;28;20064;-85
2022/02/04 01:45:21;;;;;;;1999.90;999.90;;;;;;;4.76;100.00;100245.56;5025706;28;20041;-86
2022/02/04 01:47:55;;;;;;;1999.90;999.90;;;;;;;4.80;100.00;100237.81;5016064;28;20058;-85
2022/02/04 01:50:25;;;;;;;1999.90;999.90;;;;;;;4.79;100.00;100236.16;5058116;28;20412;-86
2022/02/04 01:53:01;;;;;;;1999.90;999.90;;;;;;;4.79;100.00;100230.78;5022204;28;20061;-85
2022/02/04 01:55:29;;;;;;;1999.90;999.90;;;;;;;4.79;100.00;100228.88;5030811;28;20053;-85
2022/02/04 01:58:03;;;;;;;1999.90;999.90;;;;;;;4.76;100.00;100227.53;5028920;28;20045;-86
2022/02/04 02:00:38;;;;;;;1999.90;999.90;;;;;;;4.78;100.00;100232.66;5041990;28;20053;-85
2022/02/04 02:03:11;;;;;;;1999.90;999.90;;;;;;;4.72;100.00;100230.97;5026863;28;20498;-85
2022/02/04 02:05:45;;;;;;;1999.90;999.90;;;;;;;4.81;100.00;100228.66;5023953;28;20520;-86
2022/02/04 02:08:20;;;;;;;1999.90;999.90;;;;;;;4.83;100.00;100227.31;5035073;28;20060;-86
2022/02/04 02:10:53;;;;;;;1999.90;999.90;;;;;;;4.82;100.00;100222.19;5034334;28;20072;-86
2022/02/04 02:13:35;;;;;;;1999.90;999.90;;;;;;;4.79;100.00;100223.50;5029206;28;20087;-86
2022/02/04 02:16:18;;;;;;;1999.90;999.90;;;;;;;4.80;100.00;100219.75;5021700;28;20474;-86
2022/02/04 02:37:11;;;;;;;1999.90;999.90;;;;;;;4.77;100.00;100212.16;4956623;28;20062;-85
2022/02/04 02:40:17;;;;;;;1999.90;999.90;;;;;;;4.83;100.00;100226.50;4974026;28;20058;-85
2022/02/04 02:43:13;;;;;;;1999.90;999.90;;;;;;;4.76;100.00;100211.34;5025832;28;20508;-85
2022/02/04 02:46:02;;;;;;;1999.90;999.90;;;;;;;4.82;100.00;100217.63;5023916;28;20061;-85
2022/02/04 02:48:45;;;;;;;1999.90;999.90;;;;;;;4.84;100.00;100215.47;5028732;28;20056;-85
2022/02/04 02:51:39;;;;;;;1999.90;999.90;;;;;;;4.87;100.00;100217.66;5043555;28;20053;-86
2022/02/04 02:54:36;;;;;;;1999.90;999.90;;;;;;;4.82;100.00;100216.78;5036020;28;20045;-85
2022/02/04 02:57:38;;;;;;;1999.90;999.90;;;;;;;4.83;100.00;100208.44;5029761;28;20056;-85
2022/02/04 03:00:24;;;;;;;;;;;;;;;4.83;100.00;100205.75;5030513;28;20053;-85
2022/02/04 03:03:02;;;;;;;1999.90;999.90;;;;;;;4.79;100.00;100198.44;5036143;28;19936;-85
2022/02/04 03:05:36;;;;;;;1999.90;999.90;;;;;;;4.88;100.00;100196.91;5025671;28;20057;-85
2022/02/04 03:08:09;;;;;;;1999.90;999.90;;;;;;;4.82;100.00;100198.75;5041324;28;20391;-85
2022/02/04 03:10:42;;;;;;;1999.90;999.90;;;;;;;4.81;100.00;100194.41;5034239;28;20053;-85
2022/02/04 03:13:17;;;;;;;1999.90;999.90;;;;;;;4.89;100.00;100188.56;5031105;28;20049;-85
2022/02/04 03:15:58;;;;;;;1999.90;999.90;;;;;;;4.85;100.00;100208.22;5029290;28;20406;-85
2022/02/04 03:18:35;;;;;;;1999.90;999.90;;;;;;;4.72;100.00;100179.75;5028391;28;20049;-84
2022/02/04 03:21:13;;;;;;;1999.90;999.90;;;;;;;4.82;100.00;100192.53;5029737;28;20490;-85
2022/02/04 03:23:51;;;;;;;1999.90;999.90;;;;;;;4.85;100.00;100192.84;5028827;28;20053;-85
2022/02/04 03:26:30;;;;;;;1999.90;999.90;;;;;;;4.87;100.00;100192.59;5029080;28;20052;-85
2022/02/04 03:29:05;;;;;;;1999.90;999.90;;;;;;;4.82;100.00;100196.06;5030879;28;20494;-85
2022/02/04 03:31:43;;;;;;;1999.90;999.90;;;;;;;4.80;100.00;100182.00;5023356;28;20049;-84
2022/02/04 03:34:11;;;;;;;1999.90;999.90;;;;;;;4.86;100.00;100181.00;5025957;28;20060;-85
2022/02/04 03:36:44;;;;;;;1999.90;999.90;;;;;;;4.68;100.00;100171.38;5032698;28;20044;-85
2022/02/04 03:39:17;;;;;;;1999.90;999.90;;;;;;;4.81;100.00;100175.53;5040478;28;20053;-85
2022/02/04 03:41:51;;;;;;;1999.90;999.90;;;;;;;4.82;100.00;100171.78;5030458;28;20058;-85
2022/02/04 03:44:25;;;;;;;1999.90;999.90;;;;;;;4.86;100.00;100178.31;5028187;28;20532;-85
2022/02/04 03:46:58;;;;;;;1999.90;999.90;;;;;;;4.85;100.00;100176.66;5026513;28;20049;-85
2022/02/04 03:49:31;;;;;;;1999.90;999.90;;;;;;;4.84;100.00;100169.63;5028614;28;20049;-85
2022/02/04 03:52:05;;;;;;;1999.90;999.90;;;;;;;4.91;100.00;100169.44;5024427;28;20053;-85
2022/02/04 03:54:38;;;;;;;1999.90;999.90;;;;;;;4.95;100.00;100170.56;5031370;28;20061;-85
2022/02/04 03:57:11;;;;;;;1999.90;999.90;;;;;;;4.94;100.00;100167.06;5028361;28;20045;-85
2022/02/04 03:59:46;;;;;;;1999.90;999.90;;;;;;;4.86;100.00;100172.06;5028814;28;20053;-85
2022/02/04 04:02:19;;;;;;;1999.90;999.90;;;;;;;4.93;100.00;100165.41;5029200;28;20052;-85
2022/02/04 04:04:52;;;;;;;1999.90;999.90;;;;;;;4.77;100.00;100159.03;5029888;28;20057;-85
2022/02/04 04:07:26;;;;;;;1999.90;999.90;;;;;;;4.92;100.00;100165.69;5030221;28;20056;-84
2022/02/04 04:10:05;;;;;;;1999.90;999.90;;;;;;;4.89;100.00;100158.91;5048297;28;20061;-85
2022/02/04 04:12:38;;;;;;;1999.90;999.90;;;;;;;4.86;100.00;100166.69;5025849;28;20067;-85
2022/02/04 04:15:13;;;;;;;1999.90;999.90;;;;;;;4.90;100.00;100165.09;5044358;28;20052;-85
2022/02/04 04:17:47;;;;;;;1999.90;999.90;;;;;;;4.95;100.00;100157.06;5032125;28;20041;-85
2022/02/04 04:20:22;;;;;;;1999.90;999.90;;;;;;;4.94;100.00;100155.44;5019866;28;20080;-84
2022/02/04 04:22:51;;;;;;;1999.90;999.90;;;;;;;4.87;100.00;100154.84;5029763;28;20053;-85
2022/02/04 04:25:24;;;;;;;1999.90;999.90;;;;;;;4.86;100.00;100150.50;5030316;28;20060;-85
2022/02/04 04:27:58;;;;;;;1999.90;999.90;;;;;;;4.87;100.00;100150.25;5031601;28;20057;-84
2022/02/04 04:30:38;;;;;;;1999.90;999.90;;;;;;;4.90;100.00;100151.63;5026043;28;20524;-85
2022/02/04 04:33:11;;;;;;;1999.90;999.90;;;;;;;4.92;100.00;100155.69;5031527;28;20057;-85
2022/02/04 04:35:45;;;;;;;1999.90;999.90;;;;;;;4.93;100.00;100162.72;5029110;28;20060;-85
2022/02/04 04:38:28;;;;;;;1999.90;999.90;;;;;;;4.87;100.00;100152.94;5027566;28;20060;-84
2022/02/04 04:41:15;;;;;;;1999.90;999.90;;;;;;;4.89;100.00;100153.50;5026765;28;20493;-84
2022/02/04 04:44:15;;;;;;;1999.90;999.90;;;;;;;4.90;100.00;100148.94;5028565;28;20048;-84
2022/02/04 05:26:29;;;;;;;1999.90;999.90;;;;;;;4.81;100.00;100120.81;5035133;28;20056;-84
2022/02/04 05:29:07;;;;;;;1999.90;999.90;;;;;;;4.83;100.00;100126.75;5027048;28;20362;-84
2022/02/04 05:31:40;;;;;;;1999.90;999.90;;;;;;;4.77;100.00;100110.53;5026513;28;20076;-84
2022/02/04 05:34:16;;;;;;;1999.90;999.90;;;;;;;4.72;100.00;100109.66;5031359;28;20048;-84
2022/02/04 05:36:48;;;;;;;1999.90;999.90;;;;;;;4.74;100.00;100111.03;5027866;28;20049;-84
2022/02/04 05:39:26;;;;;;;1999.90;999.90;;;;;;;4.77;100.00;100093.53;5025235;28;20050;-84
2022/02/04 05:42:02;;;;;;;1999.90;999.90;;;;;;;4.75;100.00;100098.38;5026358;28;20139;-84
2022/02/04 05:44:36;;;;;;;1999.90;999.90;;;;;;;4.79;100.00;100094.09;5032105;28;20060;-84
2022/02/04 05:47:15;;;;;;;1999.90;999.90;;;;;;;4.68;100.00;100095.91;5029712;28;20041;-84
2022/02/04 05:50:03;;;;;;;1999.90;999.90;;;;;;;4.68;100.00;100105.84;5021994;28;20056;-85
2022/02/04 05:52:49;;;;;;;1999.90;999.90;;;;;;;4.71;100.00;100108.03;5034357;28;20064;-84
2022/02/04 05:55:31;;;;;;;1999.90;999.90;;;;;;;4.65;100.00;100100.97;5027502;28;20378;-85
2022/02/04 05:58:06;;;;;;;1999.90;999.90;;;;;;;4.69;100.00;100097.50;5025796;28;20511;-85
2022/02/04 06:00:45;;;;;;;1999.90;999.90;;;;;;;4.51;100.00;100098.69;5033705;28;20413;-85
2022/02/04 06:03:34;;;;;;;1999.90;999.90;;;;;;;4.64;100.00;100100.19;5029159;28;20056;-85
2022/02/04 06:06:40;;;;;;;1999.90;999.90;;;;;;;4.58;100.00;100085.84;5031689;28;20060;-85
2022/02/04 06:12:25;;;;;;;1999.90;999.90;;;;;;;4.60;100.00;100082.88;5020936;28;20060;-85
2022/02/04 06:15:11;;;;;;;1999.90;999.90;;;;;;;4.56;100.00;100074.47;5022765;28;20050;-84
2022/02/04 06:23:26;;;;;;;1999.90;999.90;;;;;;;4.48;100.00;100071.44;5034681;28;20046;-85
2022/02/04 06:25:56;;;;;;;1999.90;999.90;;;;;;;4.50;100.00;100080.91;5030339;28;20059;-85
2022/02/04 06:28:29;;;;;;;1999.90;999.90;;;;;;;4.53;100.00;100083.09;5035240;28;20053;-85
2022/02/04 06:31:04;;;;;;;1999.90;999.90;;;;;;;4.53;100.00;100082.25;5023308;28;20060;-84
2022/02/04 06:33:37;;;;;;;1999.90;999.90;;;;;;;4.71;100.00;100084.59;5024106;28;20053;-85
2022/02/04 06:36:10;;;;;;;1999.90;999.90;;;;;;;4.64;100.00;100094.78;5028670;28;20049;-85
2022/02/04 06:38:38;;;;;;;1999.90;999.90;;;;;;;4.56;100.00;100079.88;5032271;28;20041;-85
2022/02/04 06:41:13;;;;;;;1999.90;999.90;;;;;;;4.54;100.00;100071.25;5026771;28;20053;-86
2022/02/04 06:43:46;;;;;;;1999.90;999.90;;;;;;;4.56;100.00;100069.09;5026487;28;20049;-84
2022/02/04 06:46:19;;;;;;;1999.90;999.90;;;;;;;4.43;100.00;100069.50;5024972;28;20514;-85
2022/02/04 06:48:52;;;;;;;1999.90;999.90;;;;;;;4.43;100.00;100061.41;5029657;28;20056;-85
2022/02/04 06:51:25;;;;;;;1999.90;999.90;;;;;;;4.41;100.00;100060.88;5039703;28;20041;-84
2022/02/04 06:53:59;;;;;;;1999.90;999.90;;;;;;;4.48;100.00;100057.97;5029638;28;20057;-84
2022/02/04 06:56:34;;;;;;;1999.90;999.90;;;;;;;4.52;100.00;100061.78;5016889;28;20050;-85
2022/02/04 06:59:07;;;;;;;1999.90;999.90;;;;;;;4.55;100.00;100070.16;5021358;28;20045;-84
2022/02/04 07:01:40;;;;;;;1999.90;999.90;;;;;;;4.46;100.00;100052.00;5021736;28;20049;-84
2022/02/04 07:04:14;;;;;;;1999.90;999.90;;;;;;;4.44;100.00;100054.97;5022471;28;20050;-83
2022/02/04 07:06:54;;;;;;;1999.90;999.90;;;;;;;4.57;100.00;100067.19;5022031;28;20053;-84
2022/02/04 07:09:39;;;;;;;1999.90;999.90;;;;;;;4.49;100.00;100055.03;5027768;28;20490;-85
2022/02/04 07:12:20;;;;;;;1999.90;999.90;;;;;;;4.53;100.00;100055.31;5027028;28;20046;-84
2022/02/04 07:15:28;;;;;;;1999.90;999.90;;;;;;;4.45;100.00;100032.34;5028348;28;20065;-84
2022/02/04 07:19:44;;;;;;;1999.90;999.90;;;;;;;4.55;100.00;100048.59;5031970;28;20060;-85
2022/02/04 07:20:52;;;;;;;;;;;;;;;4.57;100.00;100056.41;5025996;28;20092;-84
2022/02/04 07:23:25;;;;;;;1999.90;999.90;;;;;;;4.44;100.00;100041.50;5031153;28;19924;-84
2022/02/04 07:25:54;;;;;;;1999.90;999.90;;;;;;;4.58;100.00;100058.06;5033620;28;20057;-85
2022/02/04 07:28:24;;;;;;;1999.90;999.90;;;;;;;4.67;100.00;100061.09;5015916;28;20065;-83
2022/02/04 07:30:58;;;;;;;1999.90;999.90;;;;;;;4.67;100.00;100059.22;5033924;28;20045;-85
2022/02/04 07:33:42;;;;;;;1999.90;999.90;;;;;;;4.72;100.00;100061.97;5043648;28;20502;-85
2022/02/04 07:41:55;;;;;;;1999.90;999.90;;;;;;;4.79;100.00;100045.56;5011551;28;20049;-84
2022/02/04 07:44:30;;;;;;;1999.90;999.90;;;;;;;4.76;100.00;100046.91;5011068;28;20053;-84
2022/02/04 07:47:04;;;;;;;1999.90;999.90;;;;;;;4.71;100.00;100060.34;5009386;28;20064;-84
2022/02/04 07:49:37;;;;;;;1999.90;999.90;;;;;;;4.76;100.00;100051.47;5004191;28;20049;-85
2022/02/04 07:52:06;;;;;;;1999.90;999.90;;;;;;;4.75;100.00;100047.16;5021588;28;20054;-84
2022/02/04 07:54:34;;;;;;;1999.90;999.90;;;;;;;4.74;100.00;100042.84;5006055;28;20083;-84
2022/02/04 07:57:07;;;;;;;1999.90;999.90;;;;;;;4.81;100.00;100037.25;5005240;28;20065;-84
2022/02/04 07:59:42;;;;;;;1999.90;999.90;;;;;;;4.76;100.00;100033.44;5003799;28;20601;-84
2022/02/04 08:02:10;;;;;;;1999.90;999.90;;;;;;;4.83;100.00;100027.81;5003663;28;20056;-84
2022/02/04 08:04:46;;;;;;;1999.90;999.90;;;;;;;4.83;100.00;100033.19;5009033;28;20049;-85
2022/02/04 08:07:19;;;;;;;1999.90;999.90;;;;;;;4.88;100.00;100029.75;5007580;28;20054;-84
2022/02/04 08:10:02;;;;;;;1999.90;999.90;;;;;;;4.94;100.00;100032.22;5003897;28;20076;-84
2022/02/04 08:12:59;;;;;;;1999.90;999.90;;;;;;;4.99;100.00;100030.66;5030328;28;20057;-84
2022/02/04 08:15:48;;;;;;;1999.90;999.90;;;;;;;4.91;100.00;100013.84;5004399;28;20100;-83
2022/02/04 08:18:46;;;;;;;1999.90;999.90;;;;;;;5.08;100.00;100019.13;5012419;28;20053;-84
2022/02/04 08:21:49;;;;;;;1999.90;999.90;;;;;;;5.06;100.00;100029.34;5012324;28;20437;-83
2022/02/04 08:24:53;;;;;;;1999.90;999.90;;;;;;;4.99;100.00;100009.88;5005009;28;20054;-84
2022/02/04 08:30:48;;;;;;;1999.90;999.90;;;;;;;5.15;100.00;100024.28;5027630;28;20049;-84
2022/02/04 08:33:57;;;;;;;1999.90;999.90;;;;;;;5.22;100.00;100019.47;4999549;28;20053;-84
2022/02/04 08:36:56;;;;;;;1999.90;999.90;;;;;;;5.13;100.00;100020.22;4996976;28;20065;-84
2022/02/04 08:46:27;;;;;;;1999.90;999.90;;;;;;;5.01;100.00;99996.13;5007219;28;20485;-83
2022/02/04 08:51:41;;;;;;;1999.90;999.90;;;;;;;5.25;100.00;100004.66;4939471;28;20382;-84
2022/02/04 08:54:18;;;;;;;1999.90;999.90;;;;;;;5.31;100.00;100002.78;5006980;28;20532;-84
2022/02/04 08:56:56;;;;;;;1999.90;999.90;;;;;;;5.43;100.00;99998.81;5000446;28;20064;-84
2022/02/04 08:59:38;;;;;;;1999.90;999.90;;;;;;;5.30;100.00;99977.69;4995576;28;20064;-83
2022/02/04 09:02:11;;;;;;;;;;;;;;;5.40;100.00;99985.00;5000099;28;20045;-82
2022/02/04 09:04:47;;;;;;;1999.90;999.90;;;;;;;5.48;100.00;99998.00;5012272;28;19948;-84
2022/02/04 09:07:25;;;;;;;1999.90;999.90;;;;;;;5.49;100.00;99994.25;4999048;28;20057;-84
2022/02/04 09:10:09;;;;;;;1999.90;999.90;;;;;;;5.54;100.00;99990.78;4998500;28;21457;-83
2022/02/04 09:18:36;;;;;;;1999.90;999.90;;;;;;;5.48;100.00;99991.81;5002578;28;20057;-83
2022/02/04 09:21:35;;;;;;;1999.90;999.90;;;;;;;5.44;100.00;99992.34;5009546;28;20474;-84
2022/02/04 09:24:09;;;;;;;1999.90;999.90;;;;;;;5.60;100.00;99985.09;5005033;28;20068;-84
2022/02/04 09:26:43;;;;;;;1999.90;999.90;;;;;;;5.54;100.00;99988.06;5002888;28;20438;-84
2022/02/04 09:29:17;;;;;;;1999.90;999.90;;;;;;;5.55;100.00;99987.81;4997174;28;20049;-83
2022/02/04 09:31:45;;;;;;;1999.90;999.90;;;;;;;5.60;100.00;99987.00;5003248;28;20526;-83
2022/02/04 09:34:19;;;;;;;1999.90;999.90;;;;;;;5.62;100.00;99982.13;5005452;28;20065;-84
2022/02/04 09:36:52;;;;;;;1999.90;999.90;;;;;;;5.66;100.00;99968.94;4998904;28;20064;-84
2022/02/04 09:39:26;;;;;;;1999.90;999.90;;;;;;;5.70;100.00;99978.94;4999888;28;20056;-84
2022/02/04 09:42:00;;;;;;;1999.90;999.90;;;;;;;5.61;100.00;99964.34;4998654;28;20674;-86
2022/02/04 09:44:33;;;;;;;1999.90;999.90;;;;;;;5.69;100.00;99973.81;5004236;28;20485;-87
2022/02/04 09:47:01;;;;;;;1999.90;999.90;;;;;;;5.63;100.00;99964.88;4996747;28;20061;-83
2022/02/04 09:49:40;;;;;;;1999.90;999.90;;;;;;;5.73;100.00;99956.81;4994520;28;20053;-85
2022/02/04 10:12:52;;;;;;;1999.90;999.90;;;;;;;6.10;100.00;99930.72;4995992;28;20080;-84
2022/02/04 10:15:35;;;;;;;1999.90;999.90;;;;;;;6.12;100.00;99934.78;4996373;28;21056;-83
2022/02/04 10:18:07;;;;;;;1999.90;999.90;;;;;;;6.17;100.00;99931.28;4996060;28;20537;-84
2022/02/04 10:20:38;;;;;;;1999.90;999.90;;;;;;;6.15;100.00;99929.94;4997290;28;20052;-84
2022/02/04 10:23:11;;;;;;;1999.90;999.90;;;;;;;6.28;100.00;99913.19;5008375;28;20045;-84
2022/02/04 10:25:45;;;;;;;1999.90;999.90;;;;;;;6.18;100.00;99913.19;5004540;28;20498;-84
2022/02/04 10:28:22;;;;;;;1999.90;999.90;;;;;;;6.23;100.00;99911.28;5002752;28;20623;-84
2022/02/04 10:31:06;;;;;;;1999.90;999.90;;;;;;;6.34;100.00;99898.59;5001906;28;20057;-85
2022/02/04 10:33:55;;;;;;;1999.90;999.90;;;;;;;6.40;100.00;99891.31;5001496;28;20049;-84
2022/02/04 10:36:40;;;;;;;1999.90;999.90;;;;;;;6.54;100.00;99899.66;5000309;28;20368;-84
2022/02/04 10:39:32;;;;;;;1999.90;999.90;;;;;;;6.42;100.00;99892.66;5010155;28;20056;-84
2022/02/04 10:42:19;;;;;;;1999.90;999.90;;;;;;;6.41;100.00;99884.81;5002412;28;20065;-83
2022/02/04 10:48:04;;;;;;;1999.90;999.90;;;;;;;6.55;100.00;99861.53;4984605;28;20069;-82
2022/02/04 11:02:36;;;;;;;1999.90;999.90;;;;;;;6.75;100.00;99841.78;4929469;28;20062;-83
2022/02/04 11:05:21;;;;;;;1999.90;999.90;;;;;;;6.67;100.00;99834.22;4988508;28;20061;-83
2022/02/04 11:11:20;;;;;;;1999.90;999.90;;;;;;;6.84;100.00;99841.22;5011055;28;20056;-83
2022/02/04 11:31:38;;;;;;;1999.90;999.90;;;;;;;7.11;100.00;99792.94;4907879;29;20436;-83
2022/02/04 11:34:17;;;;;;;1999.90;999.90;;;;;;;7.14;100.00;99789.69;4993795;28;20060;-82
2022/02/04 11:52:04;;;;;;;1999.90;999.90;;;;;;;7.12;100.00;99767.47;5009849;28;20512;-81
2022/02/04 11:54:46;;;;;;;1999.90;999.90;;;;;;;7.28;100.00;99759.31;5038512;28;20076;-83
2022/02/04 11:57:20;;;;;;;1999.90;999.90;;;;;;;7.32;100.00;99752.22;5004983;28;20057;-82
2022/02/04 11:59:57;;;;;;;1999.90;999.90;;;;;;;7.41;100.00;99760.56;5019812;28;20449;-83
2022/02/04 12:02:34;;;;;;;1999.90;999.90;;;;;;;7.30;100.00;99741.66;5009088;28;20056;-82
2022/02/04 12:05:33;;;;;;;1999.90;999.90;;;;;;;7.29;100.00;99747.38;5003727;28;20054;-83
2022/02/04 12:08:30;;;;;;;1999.90;999.90;;;;;;;7.30;100.00;99744.38;5005081;28;20053;-82
2022/02/04 12:11:11;;;;;;;1999.90;999.90;;;;;;;7.36;100.00;99734.34;5006226;28;20764;-82
2022/02/04 12:14:10;;;;;;;1999.90;999.90;;;;;;;7.45;100.00;99742.66;4996121;28;20049;-82
2022/02/04 12:17:07;;;;;;;1999.90;999.90;;;;;;;7.35;100.00;99731.91;4994797;28;20080;-82
2022/02/04 12:19:37;;;;;;;1999.90;999.90;;;;;;;7.46;100.00;99722.63;5001349;28;20050;-81
2022/02/04 12:22:07;;;;;;;1999.90;999.90;;;;;;;7.36;100.00;99719.97;5004483;28;20060;-82
2022/02/04 12:24:46;;;;;;;1999.90;999.90;;;;;;;7.36;100.00;99709.16;5004818;28;20049;-84
2022/02/04 12:27:34;;;;;;;1999.90;999.90;;;;;;;7.45;100.00;99710.97;4999326;28;20053;-84
2022/02/04 12:30:36;;;;;;;1999.90;999.90;;;;;;;7.59;100.00;99704.91;5004812;28;20065;-84
2022/02/04 12:33:05;;;;;;;1999.90;999.90;;;;;;;7.72;100.00;99679.06;5005681;28;20509;-84
2022/02/04 12:35:39;;;;;;;1999.90;999.90;;;;;;;7.85;100.00;99691.16;5004779;28;20493;-85
2022/02/04 12:38:12;;;;;;;1999.90;999.90;;;;;;;7.83;100.00;99686.03;5000132;28;20053;-84
2022/02/04 12:40:40;;;;;;;1999.90;999.90;;;;;;;7.76;100.00;99672.00;5007516;28;20057;-83
2022/02/04 12:43:10;;;;;;;1999.90;999.90;;;;;;;7.78;100.00;99673.31;5005529;28;20486;-84
2022/02/04 12:45:39;;;;;;;1999.90;999.90;;;;;;;7.85;100.00;99683.84;5010100;28;20829;-84
2022/02/04 12:48:08;;;;;;;1999.90;999.90;;;;;;;7.87;100.00;99680.84;5003256;28;20053;-82
2022/02/04 12:50:44;;;;;;;1999.90;999.90;;;;;;;7.74;100.00;99671.50;4999771;28;20046;-85
2022/02/04 12:53:23;;;;;;;1999.90;999.90;;;;;;;7.65;100.00;99685.66;4999701;28;20057;-82
2022/02/04 12:56:06;;;;;;;1999.90;999.90;;;;;;;7.61;100.00;99678.34;5009675;28;20065;-82
2022/02/04 12:58:44;;;;;;;1999.90;999.90;;;;;;;7.45;100.00;99664.97;5000762;28;20080;-82
2022/02/04 13:07:39;;;;;;;1999.90;999.90;;;;;;;7.24;100.00;99672.44;4931179;28;20054;-82
2022/02/04 13:10:20;;;;;;;1999.90;999.90;;;;;;;7.15;100.00;99655.19;4958676;28;20062;-83
2022/02/04 13:12:57;;;;;;;1999.90;999.90;;;;;;;7.15;100.00;99658.72;5001588;28;20072;-82
2022/02/04 13:15:33;;;;;;;1999.90;999.90;;;;;;;7.17;100.00;99646.78;5010835;28;20064;-85
2022/02/04 13:18:08;;;;;;;1999.90;999.90;;;;;;;7.28;100.00;99646.44;5020001;28;20053;-84
2022/02/04 13:20:43;;;;;;;1999.90;999.90;;;;;;;7.11;100.00;99640.59;5026582;28;20053;-83
2022/02/04 13:23:20;;;;;;;1999.90;999.90;;;;;;;7.04;100.00;99635.50;5010188;28;20096;-83
2022/02/04 13:25:57;;;;;;;1999.90;999.90;;;;;;;6.98;100.00;99625.81;5013258;28;20521;-83
2022/02/04 13:28:30;;;;;;;1999.90;999.90;;;;;;;7.03;100.00;99631.22;5010449;28;20069;-83
2022/02/04 13:31:05;;;;;;;;;;;;;;;7.00;100.00;99622.84;5015443;28;20064;-83
2022/02/04 13:33:41;;;;;;;1999.90;999.90;;;;;;;7.03;100.00;99612.28;5007677;28;20404;-83
2022/02/04 13:36:25;;;;;;;1999.90;999.90;;;;;;;6.92;100.00;99606.13;5011533;28;20053;-82
2022/02/04 13:39:15;;;;;;;1999.90;999.90;;;;;;;6.98;100.00;99615.81;5005963;28;20049;-81
2022/02/04 13:41:57;;;;;;;1999.90;999.90;;;;;;;6.95;100.00;99600.16;5017484;28;20075;-83
2022/02/04 13:44:41;;;;;;;1999.90;999.90;;;;;;;7.05;100.00;99606.56;5015311;28;21014;-83
2022/02/04 13:47:27;;;;;;;1999.78;999.90;;;;;;;6.98;100.00;99596.06;5009581;28;20057;-82
2022/02/04 13:50:15;;;;;;;1985.63;999.90;;;;;;;6.97;100.00;99600.69;5010491;28;20065;-83
2022/02/04 13:55:53;;;;;;;1941.43;999.90;;;;;;;6.98;100.00;99599.56;5010048;28;19929;-82
2022/02/04 13:58:39;;;;;;;1928.40;999.90;;;;;;;6.96;100.00;99599.06;5015240;28;20057;-83
2022/02/04 14:01:18;;;;;;;1955.43;999.90;;;;;;;6.90;100.00;99581.25;5014007;28;20494;-84
2022/02/04 14:04:00;;;;;;;1942.50;999.90;;;;;;;6.92;100.00;99572.88;5014237;28;20053;-83
2022/02/04 14:06:33;;;;;;;1901.32;999.90;;;;;;;7.01;100.00;99576.56;5008030;28;20049;-84
2022/02/04 14:09:14;;;;;;;1852.85;999.90;;;;;;;6.96;100.00;99576.59;5011108;28;20052;-83
2022/02/04 14:11:47;;;;;;;1906.90;999.90;;;;;;;6.93;100.00;99569.88;5008655;28;20088;-82
2022/02/04 14:14:22;;;;;;;1831.60;999.90;;;;;;;6.89;100.00;99563.41;5009952;28;20060;-82
2022/02/04 14:16:55;;;;;;;1842.68;999.90;;;;;;;7.04;100.00;99559.75;5024425;28;20061;-83
2022/02/04 14:19:26;;;;;;;1794.10;999.90;;;;;;;6.97;100.00;99549.28;5011259;28;20056;-82
2022/02/04 14:21:59;;;;;;;1733.13;999.90;;;;;;;7.02;100.00;99537.63;5006496;28;20068;-82
2022/02/04 14:24:28;;;;;;;1754.68;999.90;;;;;;;7.02;100.00;99531.41;5010473;28;20068;-82
2022/02/04 14:27:02;;;;;;;1735.93;999.90;;;;;;;6.98;100.00;99537.34;5013994;28;20053;-82
2022/02/04 14:29:43;;;;;;;1711.18;999.90;;;;;;;6.97;100.00;99524.13;5016116;28;20045;-83
2022/02/04 14:32:22;;;;;;;1701.35;999.90;;;;;;;6.94;100.00;99530.91;5011225;28;20049;-83
2022/02/04 14:35:02;;;;;;;1690.60;999.90;;;;;;;7.00;100.00;99534.38;5014679;28;20041;-82
2022/02/04 14:54:47;;;;;;;1494.80;999.90;;;;;;;7.07;100.00;99510.53;5007658;28;20486;-82
2022/02/04 15:00:36;;;;;;;1419.03;999.90;;;;;;;7.01;100.00;99514.34;5015657;28;20651;-82
2022/02/04 15:03:19;;;;;;;1401.90;999.90;;;;;;;6.96;100.00;99501.69;5020013;28;20049;-84
2022/02/04 15:06:02;;;;;;;1375.00;999.90;;;;;;;6.95;100.00;99500.06;5017524;28;20060;-84
2022/02/04 15:08:38;;;;;;;1362.32;999.90;;;;;;;6.93;100.00;99499.56;5009960;28;20054;-83
2022/02/04 15:11:14;;;;;;;1364.95;999.90;;;;;;;7.02;100.00;99494.31;5013635;28;20056;-83
2022/02/04 15:13:49;;;;;;;1346.22;999.90;;;;;;;6.94;100.00;99494.94;5021218;28;20053;-82
2022/02/04 15:16:22;;;;;;;1351.80;999.90;;;;;;;6.88;100.00;99494.19;5013164;28;20427;-83
2022/02/04 15:18:55;;;;;;;1344.25;999.90;;;;;;;6.90;100.00;99497.41;5015442;28;20053;-83
2022/02/04 15:21:29;;;;;;;1334.68;999.90;;;;;;;6.94;100.00;99497.66;5015382;28;20053;-83
2022/02/04 15:24:04;;;;;;;1342.32;999.90;;;;;;;7.00;100.00;99487.59;5017138;28;20054;-84
2022/02/04 15:26:32;;;;;;;1327.13;999.90;;;;;;;6.89;100.00;99457.13;5015073;28;20046;-84
2022/02/04 15:29:08;;;;;;;1324.32;999.90;;;;;;;6.92;100.00;99470.91;5022764;28;20062;-82
2022/02/04 15:31:42;;;;;;;1317.10;999.90;;;;;;;6.95;100.00;99456.78;5013876;28;20057;-83
2022/02/04 15:34:11;;;;;;;1310.40;999.90;;;;;;;6.78;100.00;99448.28;5021374;28;20049;-84